sensor_id;sensor_type;location;lat;lon;timestamp;pressure;altitude;pressure_sealevel;temperature;humidity
3096;BME280;1558;42.700;23.360;2023-03-14T00:00:24;95571.47;;;3.54;60.04
3096;BME280;1558;42.700;23.360;2023-03-14T00:02:53;95499.44;;;2.97;61.02
3096;BME280;1558;42.700;23.360;2023-03-14T00:05:21;95514.63;;;2.96;61.49
3096;BME280;1558;42.700;23.360;2023-03-14T00:07:49;95553.28;;;3.27;60.92
3096;BME280;1558;42.700;23.360;2023-03-14T00:10:17;95559.34;;;3.33;61.19
3096;BME280;1558;42.700;23.360;2023-03-14T00:12:45;95558.88;;;3.26;61.37
3096;BME280;1558;42.700;23.360;2023-03-14T00:15:14;95556.53;;;3.19;61.76
3096;BME280;1558;42.700;23.360;2023-03-14T00:17:44;95540.38;;;3.11;62.71
3096;BME280;1558;42.700;23.360;2023-03-14T00:20:12;95550.78;;;3.07;62.56
3096;BME280;1558;42.700;23.360;2023-03-14T00:22:41;95526.13;;;2.92;63.40
3096;BME280;1558;42.700;23.360;2023-03-14T00:25:10;95481.31;;;2.65;62.87
3096;BME280;1558;42.700;23.360;2023-03-14T00:27:38;95533.78;;;2.98;63.73
3096;BME280;1558;42.700;23.360;2023-03-14T00:30:07;95387.25;;;2.02;63.51
3096;BME280;1558;42.700;23.360;2023-03-14T00:32:36;95525.28;;;2.96;63.77
3096;BME280;1558;42.700;23.360;2023-03-14T00:35:06;95517.59;;;2.95;63.52
3096;BME280;1558;42.700;23.360;2023-03-14T00:37:34;95522.91;;;2.95;63.64
3096;BME280;1558;42.700;23.360;2023-03-14T00:40:02;95527.44;;;2.94;63.57
3096;BME280;1558;42.700;23.360;2023-03-14T00:42:33;95508.22;;;2.97;64.50
3096;BME280;1558;42.700;23.360;2023-03-14T00:45:01;95518.09;;;2.97;63.59
3096;BME280;1558;42.700;23.360;2023-03-14T00:47:28;95509.06;;;2.93;63.53
3096;BME280;1558;42.700;23.360;2023-03-14T00:49:56;95515.19;;;2.93;63.79
3096;BME280;1558;42.700;23.360;2023-03-14T00:52:25;95506.72;;;2.86;64.19
3096;BME280;1558;42.700;23.360;2023-03-14T00:54:53;95514.72;;;2.81;64.52
3096;BME280;1558;42.700;23.360;2023-03-14T00:57:21;95506.22;;;2.79;65.70
3096;BME280;1558;42.700;23.360;2023-03-14T00:59:50;95463.34;;;2.47;65.16
3096;BME280;1558;42.700;23.360;2023-03-14T01:02:19;95505.47;;;2.73;65.34
3096;BME280;1558;42.700;23.360;2023-03-14T01:04:47;95504.97;;;2.66;65.86
3096;BME280;1558;42.700;23.360;2023-03-14T01:07:16;95496.47;;;2.64;66.80
3096;BME280;1558;42.700;23.360;2023-03-14T01:09:45;95503.66;;;2.64;66.50
3096;BME280;1558;42.700;23.360;2023-03-14T01:12:13;95506.91;;;2.61;66.28
3096;BME280;1558;42.700;23.360;2023-03-14T01:14:41;95498.97;;;2.51;66.50
3096;BME280;1558;42.700;23.360;2023-03-14T01:17:09;95495.28;;;2.47;67.74
3096;BME280;1558;42.700;23.360;2023-03-14T01:19:37;95492.63;;;2.42;67.31
3096;BME280;1558;42.700;23.360;2023-03-14T01:22:05;95482.53;;;2.39;68.22
3096;BME280;1558;42.700;23.360;2023-03-14T01:24:33;95466.06;;;2.32;68.10
3096;BME280;1558;42.700;23.360;2023-03-14T01:27:02;95476.13;;;2.45;68.85
3096;BME280;1558;42.700;23.360;2023-03-14T01:29:30;95468.09;;;2.50;67.82
3096;BME280;1558;42.700;23.360;2023-03-14T01:31:58;95475.00;;;2.51;67.90
3096;BME280;1558;42.700;23.360;2023-03-14T01:34:26;95476.63;;;2.47;67.65
3096;BME280;1558;42.700;23.360;2023-03-14T01:36:53;95471.28;;;2.52;67.92
3096;BME280;1558;42.700;23.360;2023-03-14T01:39:21;95459.81;;;2.56;68.46
3096;BME280;1558;42.700;23.360;2023-03-14T01:41:49;95438.88;;;2.45;68.09
3096;BME280;1558;42.700;23.360;2023-03-14T01:44:18;95464.31;;;2.61;68.29
3096;BME280;1558;42.700;23.360;2023-03-14T01:46:47;95460.25;;;2.68;68.10
3096;BME280;1558;42.700;23.360;2023-03-14T01:49:19;95451.00;;;2.61;67.28
3096;BME280;1558;42.700;23.360;2023-03-14T01:51:52;95400.59;;;2.36;67.12
3096;BME280;1558;42.700;23.360;2023-03-14T01:54:25;95455.16;;;2.72;67.67
3096;BME280;1558;42.700;23.360;2023-03-14T01:56:56;95453.00;;;2.74;66.84
3096;BME280;1558;42.700;23.360;2023-03-14T01:59:29;95428.84;;;2.65;67.27
3096;BME280;1558;42.700;23.360;2023-03-14T02:01:59;95395.00;;;2.37;66.42
3096;BME280;1558;42.700;23.360;2023-03-14T02:04:30;95434.44;;;2.64;66.77
3096;BME280;1558;42.700;23.360;2023-03-14T02:07:03;95429.44;;;2.57;67.15
3096;BME280;1558;42.700;23.360;2023-03-14T02:09:33;95438.09;;;2.78;66.37
3096;BME280;1558;42.700;23.360;2023-03-14T02:12:01;95405.00;;;2.50;67.49
3096;BME280;1558;42.700;23.360;2023-03-14T02:14:33;95440.50;;;2.74;67.41
3096;BME280;1558;42.700;23.360;2023-03-14T02:17:03;95438.13;;;2.73;67.91
3096;BME280;1558;42.700;23.360;2023-03-14T02:19:46;95381.19;;;2.35;67.39
3096;BME280;1558;42.700;23.360;2023-03-14T02:22:18;95418.53;;;2.59;68.39
3096;BME280;1558;42.700;23.360;2023-03-14T02:24:53;95437.94;;;2.59;67.54
3096;BME280;1558;42.700;23.360;2023-03-14T02:27:26;95432.44;;;2.46;68.46
3096;BME280;1558;42.700;23.360;2023-03-14T02:29:56;95430.31;;;2.48;69.30
3096;BME280;1558;42.700;23.360;2023-03-14T02:32:27;95436.22;;;2.40;69.15
3096;BME280;1558;42.700;23.360;2023-03-14T02:34:59;95425.59;;;2.40;68.71
3096;BME280;1558;42.700;23.360;2023-03-14T02:37:32;95433.84;;;2.33;70.20
3096;BME280;1558;42.700;23.360;2023-03-14T02:40:03;95441.06;;;2.33;69.41
3096;BME280;1558;42.700;23.360;2023-03-14T02:42:33;95444.31;;;2.20;70.45
3096;BME280;1558;42.700;23.360;2023-03-14T02:48:16;95448.22;;;1.88;71.99
3096;BME280;1558;42.700;23.360;2023-03-14T02:50:46;95456.50;;;1.82;73.27
3096;BME280;1558;42.700;23.360;2023-03-14T02:53:18;95453.53;;;1.88;73.98
3096;BME280;1558;42.700;23.360;2023-03-14T02:55:46;95453.81;;;1.87;75.08
3096;BME280;1558;42.700;23.360;2023-03-14T02:58:16;95389.88;;;1.53;75.66
3096;BME280;1558;42.700;23.360;2023-03-14T03:00:44;95457.53;;;1.81;75.19
3096;BME280;1558;42.700;23.360;2023-03-14T03:03:12;95461.28;;;1.80;76.07
3096;BME280;1558;42.700;23.360;2023-03-14T03:05:41;95441.91;;;1.69;76.59
3096;BME280;1558;42.700;23.360;2023-03-14T03:08:10;95454.88;;;1.81;77.86
3096;BME280;1558;42.700;23.360;2023-03-14T03:10:38;95456.81;;;1.65;78.08
3096;BME280;1558;42.700;23.360;2023-03-14T03:13:06;95450.72;;;1.60;79.01
3096;BME280;1558;42.700;23.360;2023-03-14T03:15:35;95408.50;;;1.48;79.08
3096;BME280;1558;42.700;23.360;2023-03-14T03:18:03;95450.16;;;1.68;79.40
3096;BME280;1558;42.700;23.360;2023-03-14T03:20:31;95332.22;;;0.80;79.28
3096;BME280;1558;42.700;23.360;2023-03-14T03:22:59;95454.47;;;1.49;80.45
3096;BME280;1558;42.700;23.360;2023-03-14T03:25:27;95436.44;;;1.41;81.33
3096;BME280;1558;42.700;23.360;2023-03-14T03:27:56;95448.88;;;1.50;81.81
3096;BME280;1558;42.700;23.360;2023-03-14T03:30:24;95440.38;;;1.48;82.61
3096;BME280;1558;42.700;23.360;2023-03-14T03:32:53;95450.22;;;1.53;82.71
3096;BME280;1558;42.700;23.360;2023-03-14T03:35:21;95450.72;;;1.55;83.13
3096;BME280;1558;42.700;23.360;2023-03-14T03:37:49;95445.16;;;1.51;83.39
3096;BME280;1558;42.700;23.360;2023-03-14T03:40:17;95430.84;;;1.47;83.54
3096;BME280;1558;42.700;23.360;2023-03-14T03:42:45;95445.16;;;1.51;83.28
3096;BME280;1558;42.700;23.360;2023-03-14T03:45:13;95447.03;;;1.46;84.29
3096;BME280;1558;42.700;23.360;2023-03-14T03:47:41;95444.13;;;1.52;84.94
3096;BME280;1558;42.700;23.360;2023-03-14T03:50:11;95459.50;;;1.50;84.95
3096;BME280;1558;42.700;23.360;2023-03-14T03:52:39;95459.81;;;1.44;84.38
3096;BME280;1558;42.700;23.360;2023-03-14T03:55:07;95430.91;;;1.17;84.86
3096;BME280;1558;42.700;23.360;2023-03-14T03:57:35;95393.50;;;1.08;86.03
3096;BME280;1558;42.700;23.360;2023-03-14T04:00:04;95444.16;;;1.37;86.02
3096;BME280;1558;42.700;23.360;2023-03-14T04:02:32;95457.44;;;1.42;86.27
3096;BME280;1558;42.700;23.360;2023-03-14T04:05:00;95460.84;;;1.48;87.02
3096;BME280;1558;42.700;23.360;2023-03-14T04:07:32;95457.44;;;1.42;87.50
3096;BME280;1558;42.700;23.360;2023-03-14T04:10:00;95441.81;;;1.20;87.14
3096;BME280;1558;42.700;23.360;2023-03-14T04:12:28;95459.00;;;1.38;88.30
3096;BME280;1558;42.700;23.360;2023-03-14T04:14:56;95437.75;;;1.38;88.15
3096;BME280;1558;42.700;23.360;2023-03-14T04:17:24;95452.91;;;1.43;87.71
3096;BME280;1558;42.700;23.360;2023-03-14T04:19:52;95439.91;;;1.31;87.63
3096;BME280;1558;42.700;23.360;2023-03-14T04:22:20;95395.59;;;1.16;87.98
3096;BME280;1558;42.700;23.360;2023-03-14T04:24:50;95382.06;;;1.08;88.19
3096;BME280;1558;42.700;23.360;2023-03-14T04:27:17;95441.47;;;1.47;88.07
3096;BME280;1558;42.700;23.360;2023-03-14T04:29:45;95427.69;;;1.40;88.92
3096;BME280;1558;42.700;23.360;2023-03-14T04:32:13;95434.34;;;1.32;89.21
3096;BME280;1558;42.700;23.360;2023-03-14T04:34:41;95416.56;;;1.18;89.31
3096;BME280;1558;42.700;23.360;2023-03-14T04:37:09;95427.69;;;1.30;89.26
3096;BME280;1558;42.700;23.360;2023-03-14T04:39:37;95422.63;;;1.38;89.38
3096;BME280;1558;42.700;23.360;2023-03-14T04:42:06;95400.03;;;1.41;90.40
3096;BME280;1558;42.700;23.360;2023-03-14T04:44:34;95386.50;;;1.38;90.02
3096;BME280;1558;42.700;23.360;2023-03-14T04:47:02;95419.66;;;1.45;89.58
3096;BME280;1558;42.700;23.360;2023-03-14T04:49:30;95415.09;;;1.66;90.11
3096;BME280;1558;42.700;23.360;2023-03-14T04:51:57;95413.63;;;1.93;89.61
3096;BME280;1558;42.700;23.360;2023-03-14T04:54:25;95393.28;;;2.18;89.12
3096;BME280;1558;42.700;23.360;2023-03-14T04:56:53;95400.47;;;2.51;87.43
3096;BME280;1558;42.700;23.360;2023-03-14T04:59:22;95379.13;;;2.61;86.35
3096;BME280;1558;42.700;23.360;2023-03-14T05:01:50;95386.41;;;2.79;84.93
3096;BME280;1558;42.700;23.360;2023-03-14T05:04:18;95407.66;;;2.84;84.58
3096;BME280;1558;42.700;23.360;2023-03-14T05:06:46;95395.09;;;2.61;83.07
3096;BME280;1558;42.700;23.360;2023-03-14T05:09:14;95398.00;;;2.26;83.16
3096;BME280;1558;42.700;23.360;2023-03-14T05:11:42;95374.47;;;2.04;84.12
3096;BME280;1558;42.700;23.360;2023-03-14T05:14:10;95398.94;;;2.06;84.02
3096;BME280;1558;42.700;23.360;2023-03-14T05:16:40;95383.38;;;2.57;85.59
3096;BME280;1558;42.700;23.360;2023-03-14T05:19:08;95398.28;;;3.44;84.62
3096;BME280;1558;42.700;23.360;2023-03-14T05:21:35;95382.66;;;3.80;82.61
3096;BME280;1558;42.700;23.360;2023-03-14T05:24:04;95381.28;;;4.01;79.60
3096;BME280;1558;42.700;23.360;2023-03-14T05:26:32;95392.72;;;4.57;77.59
3096;BME280;1558;42.700;23.360;2023-03-14T05:29:00;95391.31;;;4.78;75.34
3096;BME280;1558;42.700;23.360;2023-03-14T05:31:28;95372.53;;;4.84;72.76
3096;BME280;1558;42.700;23.360;2023-03-14T05:33:57;95395.84;;;4.97;71.24
3096;BME280;1558;42.700;23.360;2023-03-14T05:36:26;95397.16;;;5.13;70.90
3096;BME280;1558;42.700;23.360;2023-03-14T05:38:54;95393.63;;;5.31;70.10
3096;BME280;1558;42.700;23.360;2023-03-14T05:41:22;95378.28;;;5.50;68.93
3096;BME280;1558;42.700;23.360;2023-03-14T05:43:50;95399.16;;;5.75;68.05
3096;BME280;1558;42.700;23.360;2023-03-14T05:46:18;95383.34;;;5.92;66.78
3096;BME280;1558;42.700;23.360;2023-03-14T05:48:46;95390.16;;;6.48;66.48
3096;BME280;1558;42.700;23.360;2023-03-14T05:51:15;95389.50;;;6.64;64.28
3096;BME280;1558;42.700;23.360;2023-03-14T05:53:43;95393.84;;;6.38;63.61
3096;BME280;1558;42.700;23.360;2023-03-14T05:56:11;95376.00;;;6.34;63.42
3096;BME280;1558;42.700;23.360;2023-03-14T05:58:39;95386.88;;;6.73;62.90
3096;BME280;1558;42.700;23.360;2023-03-14T06:01:07;95392.41;;;6.19;61.55
3096;BME280;1558;42.700;23.360;2023-03-14T06:03:35;95396.56;;;6.25;62.59
3096;BME280;1558;42.700;23.360;2023-03-14T06:06:04;95388.56;;;6.47;62.66
3096;BME280;1558;42.700;23.360;2023-03-14T06:08:33;95390.91;;;6.62;62.71
3096;BME280;1558;42.700;23.360;2023-03-14T06:11:04;95370.66;;;6.78;61.10
3096;BME280;1558;42.700;23.360;2023-03-14T06:13:32;95323.25;;;5.98;61.35
3096;BME280;1558;42.700;23.360;2023-03-14T06:16:00;95357.38;;;5.93;61.68
3096;BME280;1558;42.700;23.360;2023-03-14T06:18:28;95387.13;;;5.91;62.17
3096;BME280;1558;42.700;23.360;2023-03-14T06:20:56;95387.13;;;5.91;62.49
3096;BME280;1558;42.700;23.360;2023-03-14T06:23:24;95396.53;;;6.38;63.75
3096;BME280;1558;42.700;23.360;2023-03-14T06:25:54;95380.50;;;7.13;61.98
3096;BME280;1558;42.700;23.360;2023-03-14T06:28:22;95393.31;;;7.16;60.84
3096;BME280;1558;42.700;23.360;2023-03-14T06:30:51;95390.34;;;7.48;61.04
3096;BME280;1558;42.700;23.360;2023-03-14T06:33:19;95386.28;;;7.68;59.23
3096;BME280;1558;42.700;23.360;2023-03-14T06:35:47;95351.06;;;7.22;58.67
3096;BME280;1558;42.700;23.360;2023-03-14T06:38:15;95328.19;;;7.24;58.91
3096;BME280;1558;42.700;23.360;2023-03-14T06:40:43;95381.63;;;7.51;58.42
3096;BME280;1558;42.700;23.360;2023-03-14T06:43:13;95323.50;;;7.38;58.05
3096;BME280;1558;42.700;23.360;2023-03-14T06:45:41;95383.44;;;8.21;59.00
3096;BME280;1558;42.700;23.360;2023-03-14T06:48:09;95381.75;;;8.42;56.54
3096;BME280;1558;42.700;23.360;2023-03-14T06:50:37;95358.03;;;8.36;56.11
3096;BME280;1558;42.700;23.360;2023-03-14T06:53:04;95361.38;;;8.41;55.94
3096;BME280;1558;42.700;23.360;2023-03-14T06:55:32;95366.41;;;8.51;56.16
3096;BME280;1558;42.700;23.360;2023-03-14T06:58:00;95355.81;;;8.72;55.83
3096;BME280;1558;42.700;23.360;2023-03-14T07:00:30;95311.19;;;8.79;54.52
3096;BME280;1558;42.700;23.360;2023-03-14T07:02:58;95340.63;;;8.67;53.26
3096;BME280;1558;42.700;23.360;2023-03-14T07:05:26;95349.31;;;8.81;53.65
3096;BME280;1558;42.700;23.360;2023-03-14T07:07:53;95349.31;;;9.45;53.42
3096;BME280;1558;42.700;23.360;2023-03-14T07:10:22;95352.81;;;9.45;53.53
3096;BME280;1558;42.700;23.360;2023-03-14T07:12:50;95341.72;;;9.76;52.72
3096;BME280;1558;42.700;23.360;2023-03-14T07:15:19;95338.41;;;9.79;51.47
3096;BME280;1558;42.700;23.360;2023-03-14T07:17:48;95352.34;;;9.73;51.53
3096;BME280;1558;42.700;23.360;2023-03-14T07:20:16;95312.56;;;9.78;50.80
3096;BME280;1558;42.700;23.360;2023-03-14T07:22:47;95315.09;;;10.04;48.92
3096;BME280;1558;42.700;23.360;2023-03-14T07:25:15;95348.19;;;9.84;48.38
3096;BME280;1558;42.700;23.360;2023-03-14T07:27:44;95329.66;;;9.82;48.82
3096;BME280;1558;42.700;23.360;2023-03-14T07:30:12;95345.50;;;10.13;48.23
3096;BME280;1558;42.700;23.360;2023-03-14T07:32:41;95343.03;;;10.49;47.61
3096;BME280;1558;42.700;23.360;2023-03-14T07:35:10;95340.91;;;10.13;46.75
3096;BME280;1558;42.700;23.360;2023-03-14T07:37:38;95343.41;;;9.60;46.89
3096;BME280;1558;42.700;23.360;2023-03-14T07:40:07;95306.75;;;9.38;47.48
3096;BME280;1558;42.700;23.360;2023-03-14T07:42:38;95329.03;;;9.39;47.76
3096;BME280;1558;42.700;23.360;2023-03-14T07:45:07;95298.53;;;9.64;48.21
3096;BME280;1558;42.700;23.360;2023-03-14T07:47:35;95336.56;;;9.92;47.26
3096;BME280;1558;42.700;23.360;2023-03-14T07:50:05;95317.84;;;9.95;46.95
3096;BME280;1558;42.700;23.360;2023-03-14T07:52:34;95320.03;;;10.02;47.55
3096;BME280;1558;42.700;23.360;2023-03-14T07:55:04;95315.13;;;10.66;46.25
3096;BME280;1558;42.700;23.360;2023-03-14T07:57:32;95318.41;;;10.51;46.58
3096;BME280;1558;42.700;23.360;2023-03-14T08:00:08;95306.03;;;10.70;46.01
3096;BME280;1558;42.700;23.360;2023-03-14T08:02:41;95309.44;;;11.12;44.69
3096;BME280;1558;42.700;23.360;2023-03-14T08:05:09;95309.22;;;11.29;44.61
3096;BME280;1558;42.700;23.360;2023-03-14T08:07:39;95307.72;;;11.77;44.14
3096;BME280;1558;42.700;23.360;2023-03-14T08:10:08;95294.03;;;11.25;43.33
3096;BME280;1558;42.700;23.360;2023-03-14T08:12:39;95305.03;;;11.20;43.91
3096;BME280;1558;42.700;23.360;2023-03-14T08:15:08;95303.16;;;11.32;44.22
3096;BME280;1558;42.700;23.360;2023-03-14T08:17:36;95308.16;;;11.67;43.48
3096;BME280;1558;42.700;23.360;2023-03-14T08:20:05;95235.59;;;10.84;43.70
3096;BME280;1558;42.700;23.360;2023-03-14T08:22:35;95303.81;;;11.17;44.09
3096;BME280;1558;42.700;23.360;2023-03-14T08:25:05;95286.63;;;11.58;43.88
3096;BME280;1558;42.700;23.360;2023-03-14T08:27:34;95312.00;;;11.90;42.99
3096;BME280;1558;42.700;23.360;2023-03-14T08:30:05;95306.38;;;11.71;41.97
3096;BME280;1558;42.700;23.360;2023-03-14T08:32:34;95300.97;;;11.95;42.61
3096;BME280;1558;42.700;23.360;2023-03-14T08:35:02;95283.59;;;12.08;42.37
3096;BME280;1558;42.700;23.360;2023-03-14T08:37:31;95297.53;;;12.10;41.80
3096;BME280;1558;42.700;23.360;2023-03-14T08:40:00;95290.81;;;11.92;42.35
3096;BME280;1558;42.700;23.360;2023-03-14T08:42:35;95285.25;;;12.64;42.13
3096;BME280;1558;42.700;23.360;2023-03-14T08:45:04;95284.69;;;13.30;40.48
3096;BME280;1558;42.700;23.360;2023-03-14T08:47:33;95271.34;;;13.21;40.71
3096;BME280;1558;42.700;23.360;2023-03-14T08:50:01;95284.94;;;13.09;39.97
3096;BME280;1558;42.700;23.360;2023-03-14T08:52:29;95268.44;;;13.30;39.80
3096;BME280;1558;42.700;23.360;2023-03-14T08:54:57;95261.97;;;12.91;40.09
3096;BME280;1558;42.700;23.360;2023-03-14T08:57:25;95247.25;;;12.33;40.18
3096;BME280;1558;42.700;23.360;2023-03-14T08:59:56;95254.47;;;13.43;39.91
3096;BME280;1558;42.700;23.360;2023-03-14T09:02:25;95236.56;;;13.89;39.13
3096;BME280;1558;42.700;23.360;2023-03-14T09:04:53;95244.72;;;13.89;39.01
3096;BME280;1558;42.700;23.360;2023-03-14T09:07:21;95203.72;;;13.75;38.40
3096;BME280;1558;42.700;23.360;2023-03-14T09:09:49;95221.03;;;14.05;37.41
3096;BME280;1558;42.700;23.360;2023-03-14T09:12:17;95172.41;;;13.27;38.47
3096;BME280;1558;42.700;23.360;2023-03-14T09:14:46;95217.31;;;13.60;37.27
3096;BME280;1558;42.700;23.360;2023-03-14T09:17:15;95152.66;;;12.96;37.38
3096;BME280;1558;42.700;23.360;2023-03-14T09:19:43;95210.06;;;13.32;38.42
3096;BME280;1558;42.700;23.360;2023-03-14T09:22:11;95201.75;;;12.94;39.10
3096;BME280;1558;42.700;23.360;2023-03-14T09:24:40;95204.72;;;13.86;38.95
3096;BME280;1558;42.700;23.360;2023-03-14T09:27:08;95104.34;;;13.29;38.74
3096;BME280;1558;42.700;23.360;2023-03-14T09:29:36;95185.88;;;14.66;36.76
3096;BME280;1558;42.700;23.360;2023-03-14T09:32:04;95190.31;;;14.36;37.75
3096;BME280;1558;42.700;23.360;2023-03-14T09:34:33;95182.47;;;14.92;37.21
3096;BME280;1558;42.700;23.360;2023-03-14T09:37:02;95169.31;;;13.95;37.35
3096;BME280;1558;42.700;23.360;2023-03-14T09:39:30;95173.31;;;13.66;38.43
3096;BME280;1558;42.700;23.360;2023-03-14T09:42:02;95148.19;;;14.23;37.79
3096;BME280;1558;42.700;23.360;2023-03-14T09:44:33;95148.53;;;14.41;37.05
3096;BME280;1558;42.700;23.360;2023-03-14T09:47:04;95159.72;;;14.58;36.51
3096;BME280;1558;42.700;23.360;2023-03-14T09:49:36;95134.28;;;14.66;35.48
3096;BME280;1558;42.700;23.360;2023-03-14T09:52:11;95133.88;;;14.87;36.65
3096;BME280;1558;42.700;23.360;2023-03-14T09:54:43;95078.38;;;14.62;36.77
3096;BME280;1558;42.700;23.360;2023-03-14T09:57:13;95136.25;;;15.37;36.51
3096;BME280;1558;42.700;23.360;2023-03-14T09:59:43;95131.66;;;14.51;36.80
3096;BME280;1558;42.700;23.360;2023-03-14T10:02:15;95132.53;;;14.77;36.66
3096;BME280;1558;42.700;23.360;2023-03-14T10:04:47;95118.25;;;15.82;36.10
3096;BME280;1558;42.700;23.360;2023-03-14T10:07:21;95116.81;;;15.35;35.87
3096;BME280;1558;42.700;23.360;2023-03-14T10:09:50;95102.84;;;15.63;36.18
3096;BME280;1558;42.700;23.360;2023-03-14T10:12:19;95107.47;;;15.89;36.41
3096;BME280;1558;42.700;23.360;2023-03-14T10:14:49;95103.41;;;15.76;35.83
3096;BME280;1558;42.700;23.360;2023-03-14T10:17:18;95088.97;;;14.93;35.90
3096;BME280;1558;42.700;23.360;2023-03-14T10:19:54;95079.78;;;15.01;36.72
3096;BME280;1558;42.700;23.360;2023-03-14T10:22:24;95053.84;;;15.89;35.85
3096;BME280;1558;42.700;23.360;2023-03-14T10:25:00;95079.59;;;16.32;35.58
3096;BME280;1558;42.700;23.360;2023-03-14T10:27:32;95073.19;;;15.81;35.99
3096;BME280;1558;42.700;23.360;2023-03-14T10:30:03;95065.94;;;15.95;36.48
3096;BME280;1558;42.700;23.360;2023-03-14T10:32:34;95053.47;;;15.91;36.58
3096;BME280;1558;42.700;23.360;2023-03-14T10:35:11;95049.16;;;16.60;36.14
3096;BME280;1558;42.700;23.360;2023-03-14T10:37:51;95048.59;;;16.44;35.40
3096;BME280;1558;42.700;23.360;2023-03-14T10:40:26;95039.81;;;16.57;35.08
3096;BME280;1558;42.700;23.360;2023-03-14T10:42:55;95016.06;;;17.02;35.17
3096;BME280;1558;42.700;23.360;2023-03-14T10:45:33;94964.59;;;16.89;34.36
3096;BME280;1558;42.700;23.360;2023-03-14T10:48:16;95018.66;;;17.49;34.35
3096;BME280;1558;42.700;23.360;2023-03-14T10:50:55;94996.41;;;16.35;35.31
3096;BME280;1558;42.700;23.360;2023-03-14T10:53:24;95013.53;;;15.98;35.36
3096;BME280;1558;42.700;23.360;2023-03-14T10:55:55;94986.31;;;16.35;36.38
3096;BME280;1558;42.700;23.360;2023-03-14T10:58:25;94984.75;;;16.81;35.68
3096;BME280;1558;42.700;23.360;2023-03-14T11:01:12;94967.31;;;16.89;35.14
3096;BME280;1558;42.700;23.360;2023-03-14T11:03:51;94972.75;;;17.62;34.89
3096;BME280;1558;42.700;23.360;2023-03-14T11:06:27;94971.91;;;17.50;34.45
3096;BME280;1558;42.700;23.360;2023-03-14T11:09:02;94958.00;;;17.66;34.04
3096;BME280;1558;42.700;23.360;2023-03-14T11:11:33;94956.28;;;17.37;34.04
3096;BME280;1558;42.700;23.360;2023-03-14T11:14:12;94899.31;;;17.18;33.83
3096;BME280;1558;42.700;23.360;2023-03-14T11:16:51;94943.63;;;17.97;33.24
3096;BME280;1558;42.700;23.360;2023-03-14T11:22:20;94923.47;;;17.16;33.36
3096;BME280;1558;42.700;23.360;2023-03-14T11:25:06;94876.91;;;17.67;33.28
3096;BME280;1558;42.700;23.360;2023-03-14T11:27:43;94901.91;;;17.76;32.85
3096;BME280;1558;42.700;23.360;2023-03-14T11:30:17;94887.22;;;17.12;33.05
3096;BME280;1558;42.700;23.360;2023-03-14T11:32:50;94880.03;;;17.65;33.62
3096;BME280;1558;42.700;23.360;2023-03-14T11:35:28;94844.59;;;17.93;33.04
3096;BME280;1558;42.700;23.360;2023-03-14T11:38:18;94876.97;;;18.76;32.65
3096;BME280;1558;42.700;23.360;2023-03-14T11:40:48;94870.34;;;19.78;31.74
3096;BME280;1558;42.700;23.360;2023-03-14T11:43:21;94844.09;;;19.84;30.78
3096;BME280;1558;42.700;23.360;2023-03-14T11:45:58;94862.63;;;20.17;30.32
3096;BME280;1558;42.700;23.360;2023-03-14T11:48:35;94852.00;;;20.26;30.45
3096;BME280;1558;42.700;23.360;2023-03-14T11:51:08;94839.03;;;20.34;30.06
3096;BME280;1558;42.700;23.360;2023-03-14T11:53:55;94777.09;;;19.99;29.67
3096;BME280;1558;42.700;23.360;2023-03-14T11:56:31;94837.88;;;20.35;29.49
3096;BME280;1558;42.700;23.360;2023-03-14T11:59:04;94844.75;;;19.36;29.28
3096;BME280;1558;42.700;23.360;2023-03-14T12:01:49;94818.53;;;19.35;29.90
3096;BME280;1558;42.700;23.360;2023-03-14T12:04:31;94813.22;;;20.31;29.07
3096;BME280;1558;42.700;23.360;2023-03-14T12:07:03;94813.69;;;20.19;28.07
3096;BME280;1558;42.700;23.360;2023-03-14T12:09:35;94812.72;;;19.37;28.78
3096;BME280;1558;42.700;23.360;2023-03-14T12:12:05;94804.66;;;19.78;28.76
3096;BME280;1558;42.700;23.360;2023-03-14T12:14:36;94804.41;;;19.54;28.84
3096;BME280;1558;42.700;23.360;2023-03-14T12:17:07;94794.78;;;20.35;28.65
3096;BME280;1558;42.700;23.360;2023-03-14T12:19:46;94749.81;;;19.88;28.22
3096;BME280;1558;42.700;23.360;2023-03-14T12:22:26;94771.81;;;19.78;28.49
3096;BME280;1558;42.700;23.360;2023-03-14T12:25:02;94767.84;;;19.17;28.77
3096;BME280;1558;42.700;23.360;2023-03-14T12:27:49;94776.06;;;19.20;29.56
3096;BME280;1558;42.700;23.360;2023-03-14T12:30:33;94768.13;;;19.98;28.84
3096;BME280;1558;42.700;23.360;2023-03-14T12:33:12;94762.03;;;20.21;28.74
3096;BME280;1558;42.700;23.360;2023-03-14T12:35:41;94724.69;;;19.97;28.46
3096;BME280;1558;42.700;23.360;2023-03-14T12:38:12;94750.97;;;20.35;28.23
3096;BME280;1558;42.700;23.360;2023-03-14T12:40:49;94755.50;;;19.60;28.10
3096;BME280;1558;42.700;23.360;2023-03-14T12:43:26;94760.13;;;18.98;28.81
3096;BME280;1558;42.700;23.360;2023-03-14T12:46:19;94752.88;;;18.63;29.68
3096;BME280;1558;42.700;23.360;2023-03-14T12:48:49;94747.97;;;19.13;29.92
3096;BME280;1558;42.700;23.360;2023-03-14T12:51:19;94723.72;;;18.17;29.69
3096;BME280;1558;42.700;23.360;2023-03-14T12:57:09;94726.81;;;18.23;30.41
3096;BME280;1558;42.700;23.360;2023-03-14T12:59:51;94710.63;;;18.78;30.58
3096;BME280;1558;42.700;23.360;2023-03-14T13:02:23;94721.28;;;18.55;29.34
3096;BME280;1558;42.700;23.360;2023-03-14T13:04:59;94717.00;;;18.54;30.34
3096;BME280;1558;42.700;23.360;2023-03-14T13:07:34;94697.94;;;18.33;29.68
3096;BME280;1558;42.700;23.360;2023-03-14T13:12:54;94691.59;;;18.60;29.50
3096;BME280;1558;42.700;23.360;2023-03-14T13:15:26;94675.69;;;18.31;29.00
3096;BME280;1558;42.700;23.360;2023-03-14T13:17:59;94686.63;;;18.27;29.48
3096;BME280;1558;42.700;23.360;2023-03-14T13:20:30;94687.31;;;18.63;29.75
3096;BME280;1558;42.700;23.360;2023-03-14T13:22:59;94669.78;;;18.43;29.20
3096;BME280;1558;42.700;23.360;2023-03-14T13:25:33;94647.69;;;18.05;29.13
3096;BME280;1558;42.700;23.360;2023-03-14T13:28:03;94622.84;;;17.19;29.59
3096;BME280;1558;42.700;23.360;2023-03-14T13:30:39;94673.09;;;17.46;30.30
3096;BME280;1558;42.700;23.360;2023-03-14T13:33:12;94664.16;;;17.28;30.10
3096;BME280;1558;42.700;23.360;2023-03-14T13:35:42;94657.13;;;17.41;30.13
3096;BME280;1558;42.700;23.360;2023-03-14T13:38:20;94654.78;;;17.22;30.20
3096;BME280;1558;42.700;23.360;2023-03-14T13:40:50;94631.03;;;17.08;30.48
3096;BME280;1558;42.700;23.360;2023-03-14T13:43:24;94513.81;;;16.23;30.42
3096;BME280;1558;42.700;23.360;2023-03-14T13:45:56;94638.44;;;17.11;30.32